Allensville, Ohio
Current Conditions -  °F | °C
As of 8:15 AM on Friday 28 Nov 2014 (Local Time) from KUNI Reporting Station
Overcast Overcast  
Wind Chill: -3°   Ceiling: 4000
Heat Index: -3°   Visibility: 10mi
Dew Point: -7°   Wind: 0mph
Humidity: 76%   Direction: NA
Pressure: 30.4"   Gusts: NA
Location:  39.2719°N, 82.4596°W
Report Text: KUNI 281315Z AUTO 00000KT 10SM OVC040 M03/M07 A3040 RMK AO2 T10301067
Loading
Personal Weather Stations






























Interactive Weather Map New forecast layout! Learn more

10-Day Weather Forecast

Advertisements
Track Severe Weather on mobile